Custer Park, Illinois
Current Conditions -  °F | °C
As of 5:35 PM on Monday 20 Oct 2014 (Local Time) from KJOT Reporting Station
Overcast Overcast  
Wind Chill: 60°   Ceiling: 6000
Heat Index: 60°   Visibility: 10mi
Dew Point: 42°   Wind: 10mph
Humidity: 52%   Direction: 360°N
Pressure: 29.92"   Gusts: NA
Location:  41.3199°N, 88.0518°W
Report Text: KJOT 202235Z AUTO 36009KT 10SM OVC060 15/06 A2992 RMK AO2 T01540055
Loading
Personal Weather Stations






























Interactive Weather Map
Tropical Storm Tracking
New forecast layout! Learn more

10-Day Weather Forecast

Advertisements
Track Severe Weather on mobile